Terminal Aerodrome Forecast
Issued by NWS Cleveland, OH

Home | Current Version | Previous Version | Graphics & Text | Print | Product List | Glossary On
Versions: 1 2 3 4 5 6 7 8 9 10 11 12 13 14 15 16 17 18 19 20 21 22 23 24 25 26 27
000
FTUS41 KCLE 262324
TAFTOL
TAF
KTOL 262324Z 2700/2724 25005KT P6SM BKN120
     FM270300 12005KT 6SM -SHRA SCT025 OVC050
      TEMPO 2703/2705 5SM -TSRA OVC025CB
     FM270500 33003KT 6SM -SHRA OVC015
      TEMPO 2709/2713 3SM BR OVC008
     FM271600 06006KT P6SM BKN045
     FM272000 07006KT P6SM SCT035 BKN100=

USA.gov is the U.S. government's official web portal to all federal, state and local government web resources and services.